SAWH/USH METAR and TAF weather

Enter ICAO airport designator
Station Type Date Time Source
SAWH METAR 2020/11/28 20:00 UTC NOAA

SAWH 282000Z 05005KT 9999 VCSH SCT040 SCT080 09/M02 Q0988


Station Type Date Time Source
SAWH Decoded METAR 2020/11/28 20:00 UTC NOAA

Ushuaia Aerodrome, Argentina (SAWH) 54-48S 068-19W 14M
Nov 28, 2020 - 03:00 PM EST / 2020.11.28 2000 UTC
Wind: from the NE (050 degrees) at 6 MPH (5 KT):0
Visibility: greater than 7 mile(s):0
Sky conditions: partly cloudy
Weather: showers in the vicinity
Temperature: 48 F (9 C)
Dew Point: 28 F (-2 C)
Relative Humidity: 45%
Pressure (altimeter): 29.18 in. Hg (0988 hPa)
ob: SAWH 282000Z 05005KT 9999 VCSH SCT040 SCT080 09/M02 Q0988
cycle: 20

Station Type Date Time Source
SAWH TAF 2020/11/28 18:37 UTC NOAA

TAF SAWH 281700Z 2818/2918 23015G25KT 9999 BKN025 SCT035TCU TX10/2819Z TN03/2912Z
BECMG 2819/2821 32015G25KT SCT030 BKN100
BECMG 2906/2908 23020G30KT 8000 -SHRA SCT010 BKN020
BECMG 2914/2916 27015KT 9999 NSW SCT030 SCT100

Example: see airport list